createdAt,value
2023-03-20T00:00:33.121Z,4.25
2023-03-20T00:01:18.208Z,4.03
2023-03-20T00:02:00.326Z,4.15
2023-03-20T00:02:42.243Z,4.30
2023-03-20T00:03:24.171Z,3.92
2023-03-20T00:04:05.928Z,5.00
2023-03-20T00:04:47.748Z,4.72
2023-03-20T00:05:30.514Z,4.25
2023-03-20T00:06:32.270Z,4.22
2023-03-20T00:07:14.023Z,4.00
2023-03-20T00:07:57.450Z,4.40
2023-03-20T00:08:39.674Z,4.25
2023-03-20T00:09:21.305Z,4.05
2023-03-20T00:10:03.052Z,3.60
2023-03-20T00:10:46.990Z,4.20
2023-03-20T00:11:33.414Z,4.05
2023-03-20T00:12:22.087Z,4.13
2023-03-20T00:13:05.748Z,4.40
2023-03-20T00:13:47.548Z,4.03
2023-03-20T00:14:29.400Z,4.20
2023-03-20T00:15:23.605Z,4.78
2023-03-20T00:16:05.862Z,4.93
2023-03-20T00:16:49.203Z,4.60
2023-03-20T00:17:30.775Z,4.88
2023-03-20T00:18:23.509Z,4.35
2023-03-20T00:19:08.532Z,4.43
2023-03-20T00:19:50.351Z,4.45
2023-03-20T00:20:35.026Z,4.53
2023-03-20T00:21:19.941Z,3.90
2023-03-20T00:22:01.831Z,4.75
2023-03-20T00:22:43.551Z,4.47
2023-03-20T00:23:25.783Z,5.28
2023-03-20T00:24:07.977Z,4.32
2023-03-20T00:24:49.712Z,4.18
2023-03-20T00:25:32.321Z,4.60
2023-03-20T00:26:18.209Z,4.65
2023-03-20T00:26:59.843Z,4.53
2023-03-20T00:27:43.599Z,4.20
2023-03-20T00:28:40.580Z,4.15
2023-03-20T00:29:27.910Z,4.10
2023-03-20T00:30:22.861Z,4.35
2023-03-20T00:31:24.703Z,4.10
2023-03-20T00:32:13.106Z,4.60
2023-03-20T00:32:56.834Z,4.20
2023-03-20T00:33:38.422Z,4.45
2023-03-20T00:34:23.638Z,4.50
2023-03-20T00:35:18.651Z,4.30
2023-03-20T00:36:02.659Z,4.47
2023-03-20T00:36:44.287Z,4.03
2023-03-20T00:37:28.049Z,4.38
2023-03-20T00:38:12.321Z,4.35
2023-03-20T00:38:54.681Z,4.15
2023-03-20T00:39:36.729Z,4.15
2023-03-20T00:40:19.354Z,4.30
2023-03-20T00:41:01.079Z,4.60
2023-03-20T00:41:52.748Z,4.28
2023-03-20T00:42:36.999Z,4.57
2023-03-20T00:43:18.748Z,4.50
2023-03-20T00:44:27.931Z,4.13
2023-03-20T00:45:17.902Z,3.92
2023-03-20T00:45:59.919Z,4.07
2023-03-20T00:46:41.746Z,3.92
2023-03-20T00:47:25.300Z,3.25
2023-03-20T00:48:13.078Z,4.35
2023-03-20T00:48:55.939Z,4.30
2023-03-20T00:49:38.325Z,4.18
2023-03-20T00:50:27.380Z,4.28
2023-03-20T00:51:09.783Z,4.45
2023-03-20T00:51:51.448Z,4.22
2023-03-20T00:52:33.091Z,4.68
2023-03-20T00:53:14.709Z,4.40
2023-03-20T00:53:56.669Z,4.40
2023-03-20T00:54:38.315Z,3.90
2023-03-20T00:55:22.587Z,4.05
2023-03-20T00:56:05.916Z,4.47
2023-03-20T00:57:01.839Z,4.13
2023-03-20T00:57:55.886Z,4.38
2023-03-20T00:58:38.798Z,4.10
2023-03-20T00:59:24.959Z,3.85
2023-03-20T01:00:17.171Z,3.90
2023-03-20T01:00:59.948Z,3.90
2023-03-20T01:01:41.912Z,3.80
2023-03-20T01:02:28.855Z,3.38
2023-03-20T01:03:17.992Z,3.90
2023-03-20T01:04:02.555Z,3.20
2023-03-20T01:04:44.171Z,3.78
2023-03-20T01:05:27.535Z,3.63
2023-03-20T01:06:12.652Z,3.60
2023-03-20T01:06:54.299Z,2.75
2023-03-20T01:07:36.526Z,3.65
2023-03-20T01:08:24.432Z,3.47
2023-03-20T01:09:06.439Z,4.13
2023-03-20T01:09:48.050Z,3.28
2023-03-20T01:10:32.256Z,3.55
2023-03-20T01:11:23.444Z,3.83
2023-03-20T01:12:07.798Z,4.03
2023-03-20T01:12:49.581Z,4.22
2023-03-20T01:13:33.141Z,3.83
2023-03-20T01:14:15.968Z,4.35
2023-03-20T01:14:58.829Z,3.47
2023-03-20T01:15:41.729Z,3.30
2023-03-20T01:16:26.182Z,3.80
2023-03-20T01:17:19.042Z,3.58
2023-03-20T01:18:00.594Z,4.10
2023-03-20T01:18:42.229Z,3.80
2023-03-20T01:19:23.905Z,3.40
2023-03-20T01:20:14.690Z,3.53
2023-03-20T01:20:56.330Z,3.45
2023-03-20T01:21:37.976Z,3.55
2023-03-20T01:22:19.656Z,3.60
2023-03-20T01:23:01.565Z,3.60
2023-03-20T01:23:43.941Z,4.00
2023-03-20T01:24:25.566Z,2.60
2023-03-20T01:25:07.585Z,2.85
2023-03-20T01:25:49.957Z,2.60
2023-03-20T01:26:34.016Z,3.25
2023-03-20T01:27:18.957Z,2.92
2023-03-20T01:28:01.189Z,3.28
2023-03-20T01:28:42.886Z,3.08
2023-03-20T01:29:27.539Z,4.28
2023-03-20T01:30:23.412Z,2.85
2023-03-20T01:31:06.416Z,2.28
2023-03-20T01:31:50.370Z,2.33
2023-03-20T01:32:33.335Z,3.15
2023-03-20T01:33:16.448Z,2.05
2023-03-20T01:33:59.248Z,2.50
2023-03-20T01:34:41.074Z,1.35
2023-03-20T01:35:25.982Z,1.95
2023-03-20T01:36:11.803Z,1.33
2023-03-20T01:36:57.075Z,3.22
2023-03-20T01:37:38.904Z,1.73
2023-03-20T01:38:24.200Z,1.55
2023-03-20T01:39:07.775Z,1.52
2023-03-20T01:39:49.393Z,1.60
2023-03-20T01:40:35.936Z,1.20
2023-03-20T01:41:18.131Z,1.20
2023-03-20T01:42:00.733Z,1.63
2023-03-20T01:42:43.883Z,1.85
2023-03-20T01:43:26.328Z,1.95
2023-03-20T01:44:21.094Z,1.10
2023-03-20T01:45:16.413Z,0.98
2023-03-20T01:46:17.396Z,1.35
2023-03-20T01:47:01.473Z,0.93
2023-03-20T01:47:43.269Z,0.90
2023-03-20T01:48:53.485Z,1.23
2023-03-20T01:50:00.423Z,1.20
2023-03-20T01:50:42.187Z,1.15
2023-03-20T01:51:32.838Z,1.70
2023-03-20T01:52:18.574Z,0.90
2023-03-20T01:53:19.002Z,0.88
2023-03-20T01:54:13.065Z,1.42
2023-03-20T01:55:04.675Z,1.02
2023-03-20T01:55:48.490Z,1.77
2023-03-20T01:56:35.205Z,0.80
2023-03-20T01:57:22.527Z,0.70
2023-03-20T01:58:09.850Z,0.98
2023-03-20T01:58:58.503Z,1.00
2023-03-20T02:00:01.622Z,0.77
2023-03-20T02:00:48.485Z,1.15
2023-03-20T02:01:31.966Z,0.80
2023-03-20T02:02:17.311Z,1.20
2023-03-20T02:02:59.464Z,1.92
2023-03-20T02:04:09.076Z,1.30
2023-03-20T02:05:13.998Z,0.80
2023-03-20T02:05:57.221Z,0.90
2023-03-20T02:06:41.811Z,0.70
2023-03-20T02:07:33.072Z,0.60
2023-03-20T02:08:28.259Z,1.10
2023-03-20T02:09:11.843Z,1.40
2023-03-20T02:09:57.164Z,1.30
2023-03-20T02:10:50.471Z,1.00
2023-03-20T02:11:40.164Z,1.38
2023-03-20T02:12:22.588Z,1.58
2023-03-20T02:13:05.078Z,1.10
2023-03-20T02:13:59.212Z,1.02
2023-03-20T02:14:46.949Z,1.60
2023-03-20T02:16:01.898Z,2.15
2023-03-20T02:17:10.617Z,1.23
2023-03-20T02:17:56.040Z,1.05
2023-03-20T02:18:40.218Z,0.93
2023-03-20T02:19:29.466Z,1.30
2023-03-20T02:20:48.375Z,1.35
2023-03-20T02:21:45.398Z,1.38
2023-03-20T02:23:02.459Z,1.45
2023-03-20T02:24:47.097Z,1.23
2023-03-20T02:25:57.429Z,1.45
2023-03-20T02:27:06.191Z,1.27
2023-03-20T02:27:50.432Z,1.30
2023-03-20T02:28:43.989Z,1.30
2023-03-20T02:29:45.387Z,1.33
2023-03-20T02:30:36.925Z,1.25
2023-03-20T02:31:56.536Z,1.13
2023-03-20T02:33:05.943Z,1.23
2023-03-20T02:34:14.515Z,1.48
2023-03-20T02:35:11.334Z,0.95
2023-03-20T02:36:23.563Z,1.85
2023-03-20T02:37:16.981Z,1.35
2023-03-20T02:38:27.190Z,1.50
2023-03-20T02:39:31.707Z,1.27
2023-03-20T02:40:29.886Z,1.50
2023-03-20T02:41:14.698Z,1.45
2023-03-20T02:42:33.773Z,1.80
2023-03-20T02:43:46.793Z,1.00
2023-03-20T02:44:51.843Z,1.17
2023-03-20T02:45:43.111Z,1.45
2023-03-20T02:46:57.607Z,1.10
2023-03-20T02:48:02.944Z,1.25
2023-03-20T02:48:51.124Z,1.30
2023-03-20T02:49:57.772Z,1.15
2023-03-20T02:51:05.978Z,1.70
2023-03-20T02:52:16.339Z,0.90
2023-03-20T02:53:14.532Z,1.55
2023-03-20T02:54:27.000Z,1.98
2023-03-20T02:55:39.870Z,1.50
2023-03-20T02:56:31.344Z,1.60
2023-03-20T02:57:34.144Z,1.65
2023-03-20T02:58:22.642Z,1.30
2023-03-20T02:59:19.441Z,1.50
2023-03-20T03:00:14.058Z,1.45
2023-03-20T03:01:09.228Z,1.60
2023-03-20T03:01:58.183Z,1.40
2023-03-20T03:02:48.459Z,1.60
2023-03-20T03:03:38.475Z,1.58
2023-03-20T03:04:26.138Z,1.30
2023-03-20T03:05:15.088Z,1.75
2023-03-20T03:06:07.027Z,1.33
2023-03-20T03:06:55.757Z,1.70
2023-03-20T03:07:42.335Z,1.75
2023-03-20T03:08:29.140Z,1.55
2023-03-20T03:09:23.401Z,1.40
2023-03-20T03:10:14.121Z,1.77
2023-03-20T03:11:02.406Z,1.60
2023-03-20T03:11:49.326Z,1.73
2023-03-20T03:12:41.098Z,1.55
2023-03-20T03:13:29.474Z,1.42
2023-03-20T03:14:28.726Z,2.40
2023-03-20T03:15:35.473Z,1.50
2023-03-20T03:16:26.685Z,1.40
2023-03-20T03:17:11.086Z,1.88
2023-03-20T03:17:53.343Z,1.45
2023-03-20T03:18:37.023Z,1.95
2023-03-20T03:19:24.062Z,1.83
2023-03-20T03:20:16.121Z,1.65
2023-03-20T03:21:00.554Z,1.80
2023-03-20T03:21:43.352Z,1.80
2023-03-20T03:22:25.901Z,1.80
2023-03-20T03:23:07.950Z,1.80
2023-03-20T03:23:49.859Z,1.88
2023-03-20T03:24:41.152Z,2.08
2023-03-20T03:25:29.236Z,1.90
2023-03-20T03:26:18.682Z,2.00
2023-03-20T03:27:04.822Z,1.90
2023-03-20T03:27:53.385Z,1.63
2023-03-20T03:29:08.906Z,2.00
2023-03-20T03:29:55.574Z,1.58
2023-03-20T03:30:39.827Z,1.60
2023-03-20T03:31:22.981Z,2.05
2023-03-20T03:32:07.448Z,2.00
2023-03-20T03:32:49.066Z,2.13
2023-03-20T03:33:32.861Z,1.92
2023-03-20T03:34:18.927Z,1.70
2023-03-20T03:35:03.548Z,1.85
2023-03-20T03:35:47.703Z,1.77
2023-03-20T03:36:44.648Z,2.08
2023-03-20T03:37:36.752Z,1.77
2023-03-20T03:38:51.958Z,1.88
2023-03-20T03:39:39.538Z,1.92
2023-03-20T03:40:27.598Z,1.60
2023-03-20T03:41:33.776Z,1.90
2023-03-20T03:42:33.944Z,1.50
2023-03-20T03:43:22.817Z,1.80
2023-03-20T03:45:03.180Z,1.73
2023-03-20T03:45:52.003Z,1.92
2023-03-20T03:46:46.390Z,2.00
2023-03-20T03:47:27.991Z,2.20
2023-03-20T03:48:26.309Z,2.13
2023-03-20T03:49:12.919Z,2.10
2023-03-20T03:50:02.186Z,2.80
2023-03-20T03:50:49.603Z,2.40
2023-03-20T03:51:35.837Z,2.40
2023-03-20T03:52:23.465Z,2.05
2023-03-20T03:53:11.936Z,2.67
2023-03-20T03:53:58.921Z,2.03
2023-03-20T03:54:53.319Z,2.15
2023-03-20T03:55:58.182Z,2.10
2023-03-20T03:56:42.724Z,2.05
2023-03-20T03:57:36.486Z,2.10
2023-03-20T03:58:36.221Z,2.25
2023-03-20T03:59:27.231Z,2.05
2023-03-20T04:00:17.130Z,2.45
2023-03-20T04:01:01.504Z,2.30
2023-03-20T04:01:44.413Z,2.40
2023-03-20T04:02:27.043Z,2.42
2023-03-20T04:03:12.622Z,2.40
2023-03-20T04:04:00.961Z,2.22
2023-03-20T04:04:46.570Z,2.20
2023-03-20T04:05:31.871Z,2.83
2023-03-20T04:06:15.736Z,2.63
2023-03-20T04:06:57.726Z,2.65
2023-03-20T04:07:39.941Z,2.55
2023-03-20T04:08:21.514Z,2.80
2023-03-20T04:09:03.665Z,3.30
2023-03-20T04:09:45.622Z,2.50
2023-03-20T04:10:27.394Z,2.78
2023-03-20T04:11:20.870Z,2.78
2023-03-20T04:12:03.261Z,2.70
2023-03-20T04:12:45.935Z,2.83
2023-03-20T04:13:27.611Z,2.90
2023-03-20T04:14:09.590Z,2.70
2023-03-20T04:14:51.228Z,3.72
2023-03-20T04:15:36.796Z,3.55
2023-03-20T04:16:21.228Z,2.88
2023-03-20T04:17:03.048Z,2.92
2023-03-20T04:17:47.502Z,3.35
2023-03-20T04:18:30.634Z,3.35
2023-03-20T04:19:12.857Z,2.70
2023-03-20T04:19:54.666Z,3.53
2023-03-20T04:20:36.291Z,2.90
2023-03-20T04:21:20.500Z,2.80
2023-03-20T04:22:03.113Z,2.53
2023-03-20T04:22:46.521Z,3.20
2023-03-20T04:23:29.748Z,3.33
2023-03-20T04:24:12.040Z,2.80
2023-03-20T04:24:54.032Z,3.30
2023-03-20T04:25:36.009Z,2.97
2023-03-20T04:26:17.814Z,3.30
2023-03-20T04:26:59.472Z,3.28
2023-03-20T04:27:41.076Z,3.30
2023-03-20T04:28:28.907Z,3.50
2023-03-20T04:29:29.035Z,3.70
2023-03-20T04:30:30.415Z,3.40
2023-03-20T04:31:50.378Z,4.15
2023-03-20T04:32:41.364Z,3.80
2023-03-20T04:33:30.753Z,3.83
2023-03-20T04:34:19.986Z,3.30
2023-03-20T04:35:28.812Z,3.65
2023-03-20T04:36:13.986Z,4.05
2023-03-20T04:36:56.115Z,4.00
2023-03-20T04:37:44.325Z,4.40
2023-03-20T04:38:26.955Z,3.80
2023-03-20T04:39:09.577Z,4.10
2023-03-20T04:39:51.860Z,4.50
2023-03-20T04:40:33.819Z,4.38
2023-03-20T04:41:15.592Z,4.18
2023-03-20T04:41:58.827Z,4.20
2023-03-20T04:42:40.889Z,4.57
2023-03-20T04:43:22.712Z,4.35
2023-03-20T04:44:04.657Z,4.63
2023-03-20T04:44:47.678Z,4.32
2023-03-20T04:45:29.584Z,4.47
2023-03-20T04:46:11.286Z,4.78
2023-03-20T04:46:52.960Z,4.70
2023-03-20T04:47:35.191Z,4.60
2023-03-20T04:48:16.873Z,4.45
2023-03-20T04:48:59.296Z,4.60
2023-03-20T04:49:44.079Z,4.95
2023-03-20T04:50:25.990Z,4.93
2023-03-20T04:51:07.819Z,4.70
2023-03-20T04:51:58.530Z,5.10
2023-03-20T04:52:51.092Z,4.97
2023-03-20T04:53:33.553Z,5.38
2023-03-20T04:54:15.209Z,5.35
2023-03-20T04:54:57.937Z,5.50
2023-03-20T04:55:39.579Z,5.30
2023-03-20T04:56:21.304Z,5.55
2023-03-20T04:57:04.471Z,5.32
2023-03-20T04:57:46.961Z,5.35
2023-03-20T04:58:28.625Z,5.53
2023-03-20T04:59:10.230Z,5.90
2023-03-20T04:59:51.811Z,5.68
2023-03-20T05:00:33.933Z,5.90
2023-03-20T05:01:15.699Z,5.70
2023-03-20T05:01:57.361Z,5.78
2023-03-20T05:02:39.118Z,5.50
2023-03-20T05:03:23.417Z,6.00
2023-03-20T05:04:06.429Z,5.28
2023-03-20T05:04:48.465Z,5.05
2023-03-20T05:05:30.470Z,5.88
2023-03-20T05:06:12.119Z,5.38
2023-03-20T05:06:57.227Z,5.65
2023-03-20T05:07:44.608Z,5.63
2023-03-20T05:08:32.341Z,5.18
2023-03-20T05:09:17.134Z,5.65
2023-03-20T05:09:59.422Z,5.75
2023-03-20T05:10:41.600Z,6.28
2023-03-20T05:11:49.578Z,6.00
2023-03-20T05:12:49.630Z,6.38
2023-03-20T05:13:42.808Z,6.15
2023-03-20T05:14:50.785Z,6.05
2023-03-20T05:15:43.512Z,6.72
2023-03-20T05:16:40.228Z,6.68
2023-03-20T05:17:33.447Z,6.07
2023-03-20T05:18:39.132Z,6.28
2023-03-20T05:19:43.006Z,6.05
2023-03-20T05:20:50.077Z,5.30
2023-03-20T05:21:54.901Z,6.07
2023-03-20T05:22:52.279Z,5.13
2023-03-20T05:24:01.994Z,5.53
2023-03-20T05:25:07.058Z,5.78
2023-03-20T05:26:08.977Z,6.15
2023-03-20T05:27:08.959Z,6.25
2023-03-20T05:28:23.107Z,6.20
2023-03-20T05:29:43.382Z,6.20
2023-03-20T05:30:36.938Z,6.85
2023-03-20T05:31:46.952Z,6.35
2023-03-20T05:32:50.833Z,6.68
2023-03-20T05:33:41.413Z,6.43
2023-03-20T05:34:29.881Z,5.40
2023-03-20T05:35:31.723Z,6.95
2023-03-20T05:36:19.508Z,6.40
2023-03-20T05:37:11.046Z,6.30
2023-03-20T05:38:11.313Z,6.32
2023-03-20T05:39:06.266Z,6.35
2023-03-20T05:40:20.474Z,6.70
2023-03-20T05:41:12.176Z,6.95
2023-03-20T05:42:10.494Z,6.25
2023-03-20T05:43:03.669Z,6.75
2023-03-20T05:43:56.271Z,6.38
2023-03-20T05:45:11.092Z,6.65
2023-03-20T05:46:16.141Z,7.05
2023-03-20T05:47:20.865Z,6.32
2023-03-20T05:48:11.749Z,7.15
2023-03-20T05:48:56.243Z,6.97
2023-03-20T05:50:04.412Z,7.38
2023-03-20T05:51:02.704Z,7.68
2023-03-20T05:52:07.987Z,7.45
2023-03-20T05:53:12.831Z,6.95
2023-03-20T05:54:20.386Z,6.90
2023-03-20T05:55:20.749Z,7.75
2023-03-20T05:56:28.644Z,6.47
2023-03-20T05:57:25.660Z,7.03
2023-03-20T05:58:07.513Z,6.43
2023-03-20T05:59:08.041Z,6.78
2023-03-20T06:00:08.547Z,7.05
2023-03-20T06:01:16.246Z,7.47
2023-03-20T06:02:17.216Z,7.10
2023-03-20T06:03:09.536Z,7.10
2023-03-20T06:04:10.145Z,7.50
2023-03-20T06:05:10.281Z,7.00
2023-03-20T06:06:00.784Z,7.13
2023-03-20T06:06:42.517Z,7.72
2023-03-20T06:07:24.395Z,7.32
2023-03-20T06:08:15.822Z,7.75
2023-03-20T06:08:57.522Z,7.30
2023-03-20T06:09:39.173Z,7.45
2023-03-20T06:10:25.244Z,7.65
2023-03-20T06:11:07.378Z,7.93
2023-03-20T06:11:51.365Z,7.63
2023-03-20T06:12:33.956Z,7.18
2023-03-20T06:13:16.238Z,6.80
2023-03-20T06:13:58.994Z,7.60
2023-03-20T06:14:49.587Z,7.10
2023-03-20T06:15:31.549Z,7.57
2023-03-20T06:16:24.103Z,7.60
2023-03-20T06:17:06.284Z,6.50
2023-03-20T06:17:48.258Z,7.07
2023-03-20T06:18:29.882Z,7.68
2023-03-20T06:19:11.682Z,7.43
2023-03-20T06:19:53.762Z,7.45
2023-03-20T06:20:37.039Z,7.22
2023-03-20T06:21:19.877Z,6.40
2023-03-20T06:22:01.672Z,7.43
2023-03-20T06:22:45.613Z,7.63
2023-03-20T06:23:30.550Z,7.10
2023-03-20T06:24:12.989Z,6.45
2023-03-20T06:24:57.080Z,7.05
2023-03-20T06:25:44.283Z,6.55
2023-03-20T06:26:26.589Z,6.93
2023-03-20T06:27:20.577Z,7.20
2023-03-20T06:28:03.965Z,6.30
2023-03-20T06:28:45.963Z,6.82
2023-03-20T06:29:28.945Z,6.78
2023-03-20T06:30:19.374Z,7.50
2023-03-20T06:31:01.636Z,6.57
2023-03-20T06:31:44.582Z,6.70
2023-03-20T06:32:32.722Z,7.25
2023-03-20T06:33:16.799Z,6.70
2023-03-20T06:34:11.632Z,7.32
2023-03-20T06:34:58.422Z,7.43
2023-03-20T06:35:40.585Z,7.03
2023-03-20T06:36:22.446Z,7.15
2023-03-20T06:37:13.488Z,7.82
2023-03-20T06:37:55.310Z,6.57
2023-03-20T06:38:40.790Z,7.75
2023-03-20T06:39:28.565Z,6.85
2023-03-20T06:40:11.409Z,6.68
2023-03-20T06:40:53.058Z,6.43
2023-03-20T06:41:35.240Z,6.95
2023-03-20T06:42:20.980Z,6.93
2023-03-20T06:43:04.799Z,7.25
2023-03-20T06:43:56.699Z,7.03
2023-03-20T06:44:43.477Z,6.55
2023-03-20T06:45:30.242Z,7.80
2023-03-20T06:46:14.836Z,7.43
2023-03-20T06:46:56.648Z,7.45
2023-03-20T06:47:38.395Z,6.55
2023-03-20T06:48:22.190Z,7.18
2023-03-20T06:49:04.246Z,7.35
2023-03-20T06:49:46.238Z,6.75
2023-03-20T06:50:28.092Z,7.28
2023-03-20T06:51:11.073Z,6.85
2023-03-20T06:52:03.353Z,7.40
2023-03-20T06:52:47.398Z,7.30
2023-03-20T06:53:55.717Z,8.48
2023-03-20T06:54:42.092Z,7.85
2023-03-20T06:55:24.279Z,6.95
2023-03-20T06:56:06.722Z,7.60
2023-03-20T06:56:48.326Z,7.72
2023-03-20T06:57:29.983Z,7.10
2023-03-20T06:58:11.610Z,6.95
2023-03-20T06:58:53.322Z,8.00
2023-03-20T06:59:35.261Z,8.55
2023-03-20T07:00:17.752Z,8.43
2023-03-20T07:00:59.645Z,8.38
2023-03-20T07:01:41.773Z,8.38
2023-03-20T07:02:24.223Z,8.45
2023-03-20T07:03:06.448Z,8.65
2023-03-20T07:03:48.582Z,8.82
2023-03-20T07:04:34.473Z,9.93
2023-03-20T07:05:18.280Z,9.73
2023-03-20T07:06:00.505Z,8.95
2023-03-20T07:06:42.690Z,9.48
2023-03-20T07:07:25.082Z,9.85
2023-03-20T07:08:07.705Z,9.02
2023-03-20T07:08:49.793Z,8.85
2023-03-20T07:09:31.763Z,9.05
2023-03-20T07:10:13.531Z,9.30
2023-03-20T07:11:01.311Z,9.18
2023-03-20T07:11:43.662Z,9.07
2023-03-20T07:12:28.586Z,8.75
2023-03-20T07:13:14.276Z,8.88
2023-03-20T07:13:57.073Z,8.60
2023-03-20T07:14:49.972Z,9.30
2023-03-20T07:15:34.332Z,8.68
2023-03-20T07:16:16.341Z,9.82
2023-03-20T07:16:58.166Z,9.95
2023-03-20T07:17:39.776Z,9.63
2023-03-20T07:18:22.316Z,9.73
2023-03-20T07:19:04.953Z,9.57
2023-03-20T07:19:50.232Z,10.43
2023-03-20T07:20:31.927Z,10.27
2023-03-20T07:21:20.224Z,9.77
2023-03-20T07:22:04.723Z,10.30
2023-03-20T07:22:52.631Z,11.13
2023-03-20T07:23:38.858Z,10.23
2023-03-20T07:24:20.506Z,10.10
2023-03-20T07:25:02.333Z,10.02
2023-03-20T07:25:45.893Z,9.70
2023-03-20T07:26:30.997Z,9.52
2023-03-20T07:27:12.858Z,10.50
2023-03-20T07:27:54.541Z,9.30
2023-03-20T07:28:38.800Z,9.98
2023-03-20T07:29:38.280Z,9.73
2023-03-20T07:30:26.249Z,9.43
2023-03-20T07:31:22.012Z,10.38
2023-03-20T07:32:08.295Z,9.63
2023-03-20T07:32:53.895Z,9.43
2023-03-20T07:33:36.311Z,9.48
2023-03-20T07:34:18.944Z,9.95
2023-03-20T07:35:01.661Z,9.38
2023-03-20T07:35:43.570Z,9.93
2023-03-20T07:36:25.493Z,10.10
2023-03-20T07:37:07.282Z,10.50
2023-03-20T07:37:50.481Z,9.95
2023-03-20T07:38:33.107Z,9.90
2023-03-20T07:39:23.485Z,9.07
2023-03-20T07:40:28.180Z,10.25
2023-03-20T07:41:13.960Z,10.88
2023-03-20T07:42:00.951Z,10.23
2023-03-20T07:43:08.382Z,10.88
2023-03-20T07:44:10.397Z,10.88
2023-03-20T07:45:09.368Z,10.70
2023-03-20T07:45:51.493Z,10.98
2023-03-20T07:46:34.573Z,10.77
2023-03-20T07:47:16.626Z,10.20
2023-03-20T07:47:58.397Z,10.10
2023-03-20T07:48:40.329Z,10.80
2023-03-20T07:49:25.010Z,10.70
2023-03-20T07:50:08.337Z,9.88
2023-03-20T07:50:59.149Z,10.07
2023-03-20T07:51:43.926Z,10.80
2023-03-20T07:52:25.746Z,11.57
2023-03-20T07:53:08.285Z,11.38
2023-03-20T07:53:50.241Z,10.65
2023-03-20T07:54:31.960Z,11.60
2023-03-20T07:55:14.054Z,10.52
2023-03-20T07:55:55.770Z,11.85
2023-03-20T07:56:37.541Z,11.50
2023-03-20T07:57:19.233Z,11.90
2023-03-20T07:58:01.002Z,12.38
2023-03-20T07:58:42.697Z,11.63
2023-03-20T07:59:24.389Z,12.30
2023-03-20T08:00:07.029Z,12.57
2023-03-20T08:00:53.426Z,12.75
2023-03-20T08:01:35.195Z,13.00
2023-03-20T08:02:18.093Z,14.85
2023-03-20T08:02:59.993Z,15.15
2023-03-20T08:03:41.926Z,14.90
2023-03-20T08:04:23.952Z,15.93
2023-03-20T08:05:06.491Z,15.98
2023-03-20T08:05:48.228Z,16.45
2023-03-20T08:06:30.035Z,17.27
2023-03-20T08:07:15.028Z,15.40
2023-03-20T08:07:56.852Z,16.67
2023-03-20T08:08:38.752Z,16.48
2023-03-20T08:09:20.477Z,15.90
2023-03-20T08:10:03.788Z,15.88
2023-03-20T08:10:45.540Z,15.50
2023-03-20T08:11:27.343Z,15.77
2023-03-20T08:12:08.922Z,17.30
2023-03-20T08:12:50.656Z,16.63
2023-03-20T08:13:32.273Z,16.75
2023-03-20T08:14:13.970Z,16.63
2023-03-20T08:14:55.679Z,17.63
2023-03-20T08:15:37.593Z,18.35
2023-03-20T08:16:19.672Z,17.48
2023-03-20T08:17:13.878Z,17.52
2023-03-20T08:17:58.727Z,18.58
2023-03-20T08:18:40.372Z,17.00
2023-03-20T08:19:22.129Z,18.05
2023-03-20T08:20:04.287Z,17.90
2023-03-20T08:20:46.604Z,17.75
2023-03-20T08:21:29.621Z,17.60
2023-03-20T08:22:11.509Z,18.65
2023-03-20T08:22:53.245Z,18.20
2023-03-20T08:23:34.957Z,17.23
2023-03-20T08:24:16.688Z,17.25
2023-03-20T08:24:58.294Z,18.10
2023-03-20T08:25:39.895Z,18.42
2023-03-20T08:26:21.914Z,18.20
2023-03-20T08:27:04.067Z,17.58
2023-03-20T08:27:45.748Z,19.17
2023-03-20T08:28:45.869Z,18.17
2023-03-20T08:29:28.158Z,18.95
2023-03-20T08:30:10.739Z,17.83
2023-03-20T08:30:52.494Z,18.25
2023-03-20T08:31:34.104Z,18.65
2023-03-20T08:32:16.020Z,16.58
2023-03-20T08:32:59.042Z,18.30
2023-03-20T08:33:41.037Z,17.10
2023-03-20T08:34:24.105Z,17.63
2023-03-20T08:35:06.695Z,17.75
2023-03-20T08:35:58.675Z,17.65
2023-03-20T08:36:40.349Z,16.67
2023-03-20T08:37:22.400Z,17.48
2023-03-20T08:38:04.224Z,16.95
2023-03-20T08:38:46.712Z,17.23
2023-03-20T08:39:28.332Z,16.83
2023-03-20T08:40:11.649Z,17.17
2023-03-20T08:40:54.727Z,15.98
2023-03-20T08:41:41.860Z,16.63
2023-03-20T08:42:23.535Z,16.95
2023-03-20T08:43:05.482Z,16.58
2023-03-20T08:43:47.997Z,17.40
2023-03-20T08:44:29.677Z,16.20
2023-03-20T08:45:11.967Z,16.02
2023-03-20T08:45:54.415Z,16.42
2023-03-20T08:46:36.371Z,16.55
2023-03-20T08:47:18.188Z,16.90
2023-03-20T08:47:59.836Z,16.80
2023-03-20T08:48:41.640Z,16.80
2023-03-20T08:49:23.277Z,17.17
2023-03-20T08:50:05.508Z,17.00
2023-03-20T08:50:47.112Z,18.35
2023-03-20T08:51:28.730Z,17.73
2023-03-20T08:52:10.585Z,17.42
2023-03-20T08:52:52.331Z,17.13
2023-03-20T08:53:34.001Z,17.15
2023-03-20T08:54:18.302Z,17.50
2023-03-20T08:54:59.926Z,16.90
2023-03-20T08:55:41.621Z,17.17
2023-03-20T08:56:23.274Z,16.60
2023-03-20T08:57:05.292Z,18.13
2023-03-20T08:57:47.443Z,18.02
2023-03-20T08:58:29.507Z,17.40
2023-03-20T08:59:11.554Z,16.15
2023-03-20T08:59:53.366Z,16.85
2023-03-20T09:00:35.066Z,16.60
2023-03-20T09:01:16.801Z,17.73
2023-03-20T09:01:58.690Z,17.20
2023-03-20T09:02:40.593Z,17.20
2023-03-20T09:03:22.374Z,17.10
2023-03-20T09:04:04.985Z,17.33
2023-03-20T09:04:46.677Z,17.05
2023-03-20T09:05:28.406Z,17.55
2023-03-20T09:06:10.550Z,16.25
2023-03-20T09:06:52.372Z,16.63
2023-03-20T09:07:34.168Z,16.27
2023-03-20T09:08:16.439Z,16.63
2023-03-20T09:08:58.056Z,15.55
2023-03-20T09:09:39.804Z,17.27
2023-03-20T09:10:21.633Z,17.75
2023-03-20T09:11:04.561Z,16.70
2023-03-20T09:11:46.317Z,16.20
2023-03-20T09:12:28.409Z,16.73
2023-03-20T09:13:26.126Z,15.57
2023-03-20T09:14:08.712Z,16.02
2023-03-20T09:14:50.458Z,16.02
2023-03-20T09:15:32.363Z,15.95
2023-03-20T09:16:15.074Z,15.63
2023-03-20T09:16:56.842Z,15.32
2023-03-20T09:17:38.486Z,16.00
2023-03-20T09:18:21.308Z,15.57
2023-03-20T09:19:03.907Z,15.23
2023-03-20T09:19:45.744Z,15.07
2023-03-20T09:20:27.434Z,15.23
2023-03-20T09:21:09.237Z,15.80
2023-03-20T09:21:50.933Z,16.50
2023-03-20T09:22:33.199Z,14.95
2023-03-20T09:23:15.245Z,15.07
2023-03-20T09:23:56.917Z,15.73
2023-03-20T09:24:38.520Z,13.95
2023-03-20T09:25:20.269Z,15.82
2023-03-20T09:26:02.034Z,15.27
2023-03-20T09:26:43.796Z,14.07
2023-03-20T09:27:25.619Z,15.18
2023-03-20T09:28:07.533Z,14.77
2023-03-20T09:28:49.289Z,15.68
2023-03-20T09:29:31.102Z,14.25
2023-03-20T09:30:13.418Z,14.95
2023-03-20T09:30:56.974Z,14.30
2023-03-20T09:31:38.836Z,13.93
2023-03-20T09:32:20.536Z,15.25
2023-03-20T09:33:02.281Z,14.45
2023-03-20T09:33:43.948Z,13.70
2023-03-20T09:34:25.746Z,13.93
2023-03-20T09:35:07.578Z,13.40
2023-03-20T09:35:49.469Z,13.60
2023-03-20T09:36:31.169Z,14.70
2023-03-20T09:37:12.854Z,14.30
2023-03-20T09:37:54.568Z,14.50
2023-03-20T09:38:36.325Z,13.98
2023-03-20T09:39:18.916Z,13.98
2023-03-20T09:40:00.770Z,13.27
2023-03-20T09:41:17.741Z,13.98
2023-03-20T09:42:08.664Z,14.48
2023-03-20T09:43:27.356Z,12.65
2023-03-20T09:44:26.804Z,13.65
2023-03-20T09:45:11.719Z,13.95
2023-03-20T09:46:11.595Z,13.23
2023-03-20T09:47:31.424Z,13.20
2023-03-20T09:48:32.895Z,13.32
2023-03-20T09:49:53.514Z,13.07
2023-03-20T09:50:41.405Z,12.48
2023-03-20T09:51:41.956Z,13.23
2023-03-20T09:52:53.395Z,14.43
2023-03-20T09:53:40.039Z,12.20
2023-03-20T09:54:27.219Z,12.00
2023-03-20T09:55:20.166Z,12.98
2023-03-20T09:56:01.900Z,27.98
2023-03-20T09:56:43.747Z,23.33
2023-03-20T09:57:34.699Z,30.35
2023-03-20T09:58:31.160Z,19.00
2023-03-20T09:59:16.045Z,14.30
2023-03-20T10:00:02.615Z,12.27
2023-03-20T10:00:58.529Z,13.80
2023-03-20T10:01:50.359Z,11.23
2023-03-20T10:02:45.336Z,11.20
2023-03-20T10:03:37.319Z,12.05
2023-03-20T10:04:19.192Z,11.23
2023-03-20T10:05:03.296Z,13.10
2023-03-20T10:05:46.587Z,12.07
2023-03-20T10:06:35.203Z,11.70
2023-03-20T10:07:18.416Z,12.57
2023-03-20T10:08:03.225Z,18.33
2023-03-20T10:08:46.153Z,16.15
2023-03-20T10:09:31.743Z,13.73
2023-03-20T10:10:15.472Z,13.77
2023-03-20T10:11:18.846Z,13.75
2023-03-20T10:12:24.883Z,14.38
2023-03-20T10:13:21.452Z,20.52
2023-03-20T10:14:03.028Z,20.60
2023-03-20T10:15:00.936Z,15.40
2023-03-20T10:15:52.413Z,11.65
2023-03-20T10:17:08.078Z,18.60
2023-03-20T10:18:18.231Z,10.57
2023-03-20T10:19:24.654Z,12.63
2023-03-20T10:20:36.615Z,10.68
2023-03-20T10:21:48.630Z,16.27
2023-03-20T10:22:38.123Z,25.75
2023-03-20T10:23:40.958Z,28.10
2023-03-20T10:24:25.768Z,15.73
2023-03-20T10:25:22.877Z,11.27
2023-03-20T10:26:16.097Z,10.10
2023-03-20T10:27:05.928Z,12.73
2023-03-20T10:28:11.488Z,15.40
2023-03-20T10:29:00.239Z,22.58
2023-03-20T10:29:54.381Z,23.52
2023-03-20T10:30:48.261Z,15.93
2023-03-20T10:31:33.923Z,24.90
2023-03-20T10:32:38.537Z,26.98